Overview Statistics Trail Chart Weather Telemetry Raw packets
 

This is the latest recevied weather packets stored in our database for station/object DJ2KUA-6. If no packets are shown the sender has not sent any weather packets the latest 10 day(s).

<< 1 2 3 4 5 6 7 >>
Time Temp. Humidity Pressure Rain* Wind** Luminosity Snow
1788565855 22.78° C 65% 1070 hPa 0 mm - - -
1788563573 22.78° C 65% 1069 hPa 0 mm - - -
1788562435 22.78° C 64% 1069 hPa 0 mm - - -
1788561295 23.33° C 63% 1069 hPa 0 mm - - -
1788560154 24.44° C 60% 1069 hPa 0 mm - - -
1788557875 25° C 58% 1068 hPa 0 mm - - -
1788556736 25.56° C 56% 1068 hPa 0 mm - - -
1788554453 26.67° C 52% 1067 hPa 0 mm - - -
1788552174 27.22° C 51% 1066 hPa 0 mm - - -
1788551036 27.22° C 50% 1066 hPa 0 mm - - -
1788549895 27.78° C 50% 1066 hPa 0 mm - - -
1788548755 27.78° C 50% 1066 hPa 0 mm - - -
1788547619 27.78° C 50% 1066 hPa 0 mm - - -
1788546475 28.33° C 49% 1066 hPa 0 mm - - -
1788545334 28.33° C 48% 1066 hPa 0 mm - - -
1788544194 28.89° C 47% 1066 hPa 0 mm - - -
1788543055 29.44° C 45% 1066 hPa 0 mm - - -
1788540775 30.56° C 42% 1065 hPa 0 mm - - -
1788539636 31.11° C 42% 1065 hPa 0 mm - - -
1788538495 31.67° C 41% 1065 hPa 0 mm - - -
1788537354 31.67° C 41% 1065 hPa 0 mm - - -
1788536215 32.22° C 41% 1065 hPa 0 mm - - -
1788535074 32.22° C 42% 1065 hPa 0 mm - - -
1788533936 32.22° C 42% 1065 hPa 0 mm - - -
1788532795 32.22° C 42% 1065 hPa 0 mm - - -

* Rain latest hour (hover to see other rain measurements)
** Current wind speed in m/s (hover to see current wind gust speed)